Time;durP1;ratioP1;P1;durP2;ratioP2;P2;SDS_P1;SDS_P2;PMS_P1;PMS_P2;Temp;Humidity;BMP_temperature;BMP_pressure;BME280_temperature;BME280_humidity;BME280_pressure;Samples;Min_cycle;Max_cycle;Signal;HPM_P1;HPM_P2
2022/04/16 00:00:15;;;;;;;8.82;4.53;;;13.80;99.90;;;;;;5055822;28;20052;-80
2022/04/16 00:02:42;;;;;;;11.48;4.90;;;13.80;99.90;;;;;;5052981;28;20036;-79
2022/04/16 00:05:08;;;;;;;12.85;5.10;;;13.90;99.90;;;;;;5054538;28;20063;-80
2022/04/16 00:07:34;;;;;;;15.43;5.05;;;13.80;99.90;;;;;;5054968;28;20375;-81
2022/04/16 00:09:59;;;;;;;10.48;5.43;;;13.80;99.90;;;;;;5056003;28;20521;-80
2022/04/16 00:12:27;;;;;;;10.75;5.40;;;13.90;99.90;;;;;;5055453;28;20029;-81
2022/04/16 00:14:54;;;;;;;11.20;5.40;;;14.00;99.90;;;;;;5054545;28;20472;-79
2022/04/16 00:17:20;;;;;;;12.35;5.72;;;13.90;99.90;;;;;;5055573;28;20521;-81
2022/04/16 00:19:46;;;;;;;11.10;6.15;;;13.90;99.90;;;;;;5054338;28;20021;-80
2022/04/16 00:22:12;;;;;;;12.40;5.40;;;14.00;99.90;;;;;;5055615;28;20040;-80
2022/04/16 00:24:42;;;;;;;13.25;6.15;;;13.90;99.90;;;;;;5054119;28;20156;-81
2022/04/16 00:27:12;;;;;;;19.00;6.90;;;13.80;99.90;;;;;;5054206;28;20040;-79
2022/04/16 00:29:38;;;;;;;12.57;6.30;;;13.70;99.90;;;;;;5054165;28;20057;-80
2022/04/16 00:32:07;;;;;;;31.33;6.80;;;13.70;99.90;;;;;;5055565;28;20032;-79
2022/04/16 00:34:34;;;;;;;17.42;6.88;;;13.60;99.90;;;;;;5055559;28;20728;-78
2022/04/16 00:37:00;;;;;;;16.98;7.05;;;13.60;99.90;;;;;;5055173;28;20096;-82
2022/04/16 00:39:26;;;;;;;15.65;7.10;;;13.50;99.90;;;;;;5055392;28;20112;-79
2022/04/16 00:41:52;;;;;;;13.65;6.75;;;13.30;99.90;;;;;;5053662;28;20025;-81
2022/04/16 00:44:21;;;;;;;12.85;6.93;;;13.20;99.90;;;;;;5055013;28;20104;-81
2022/04/16 00:46:50;;;;;;;12.05;6.88;;;13.20;99.90;;;;;;5055349;28;20052;-82
2022/04/16 00:49:16;;;;;;;16.08;7.00;;;13.10;99.90;;;;;;5055464;28;20044;-80
2022/04/16 00:51:48;;;;;;;16.55;6.88;;;13.10;99.90;;;;;;5055356;28;20053;-80
2022/04/16 00:54:14;;;;;;;;;;;13.10;99.90;;;;;;5054201;28;20028;-81
2022/04/16 00:56:40;;;;;;;13.07;5.97;;;13.20;99.90;;;;;;5054756;28;20313;-80
2022/04/16 00:59:05;;;;;;;8.95;5.70;;;13.20;99.90;;;;;;5053141;28;20056;-81
2022/04/16 01:01:32;;;;;;;14.35;6.47;;;13.10;99.90;;;;;;5053371;28;20032;-80
2022/04/16 01:03:59;;;;;;;15.60;7.00;;;13.10;99.90;;;;;;5053504;28;20098;-80
2022/04/16 01:06:36;;;;;;;13.45;6.38;;;13.10;99.90;;;;;;5053344;28;20112;-80
2022/04/16 01:09:02;;;;;;;12.43;6.00;;;13.10;99.90;;;;;;5052461;28;20028;-79
2022/04/16 01:11:27;;;;;;;12.05;5.57;;;13.00;99.90;;;;;;5054497;28;20097;-81
2022/04/16 01:13:53;;;;;;;11.68;6.53;;;13.00;99.90;;;;;;5054571;28;20135;-81
2022/04/16 01:16:19;;;;;;;15.38;6.75;;;12.90;99.90;;;;;;5053264;28;20086;-80
2022/04/16 01:18:46;;;;;;;14.38;6.80;;;12.80;99.90;;;;;;5054393;28;20027;-80
2022/04/16 01:21:13;;;;;;;14.50;6.18;;;12.80;99.90;;;;;;5053361;28;20025;-81
2022/04/16 01:23:39;;;;;;;13.27;5.75;;;12.70;99.90;;;;;;5053048;28;20108;-80
2022/04/16 01:26:06;;;;;;;12.55;6.60;;;12.60;99.90;;;;;;5054544;28;20459;-80
2022/04/16 01:28:32;;;;;;;18.35;6.63;;;12.50;99.90;;;;;;5053202;28;20064;-78
2022/04/16 01:30:58;;;;;;;12.70;6.00;;;12.40;99.90;;;;;;5052930;28;20044;-80
2022/04/16 01:33:24;;;;;;;13.65;5.70;;;12.30;99.90;;;;;;5054266;28;20032;-80
2022/04/16 01:35:56;;;;;;;11.15;5.63;;;12.30;99.90;;;;;;5054520;28;20374;-80
2022/04/16 01:38:25;;;;;;;14.23;6.35;;;12.30;99.90;;;;;;5051518;28;20013;-80
2022/04/16 01:40:54;;;;;;;14.90;6.47;;;12.20;99.90;;;;;;5052870;28;20029;-80
2022/04/16 01:43:20;;;;;;;10.48;6.82;;;12.20;99.90;;;;;;5052702;28;20487;-81
2022/04/16 01:45:48;;;;;;;11.73;6.78;;;12.10;99.90;;;;;;5053834;28;20025;-82
2022/04/16 01:48:13;;;;;;;14.23;6.82;;;12.00;99.90;;;;;;5053932;28;20031;-80
2022/04/16 01:50:40;;;;;;;13.60;7.05;;;12.10;99.90;;;;;;5052580;28;20025;-80
2022/04/16 01:53:06;;;;;;;13.13;7.65;;;12.00;99.90;;;;;;5054001;28;20056;-80
2022/04/16 01:55:32;;;;;;;14.63;7.95;;;12.00;99.90;;;;;;5054087;28;20055;-80
2022/04/16 01:57:58;;;;;;;16.42;7.95;;;11.90;99.90;;;;;;5053746;28;20394;-81
2022/04/16 02:00:24;;;;;;;18.73;7.93;;;11.90;99.90;;;;;;5052314;28;20431;-79
2022/04/16 02:02:50;;;;;;;13.82;7.72;;;11.80;99.90;;;;;;5052357;28;20483;-79
2022/04/16 02:05:16;;;;;;;16.00;8.27;;;11.70;99.90;;;;;;5051895;28;20031;-81
2022/04/16 02:07:42;;;;;;;18.40;9.00;;;11.70;99.90;;;;;;5053434;28;20100;-82
2022/04/16 02:10:11;;;;;;;15.68;8.25;;;11.60;99.90;;;;;;5052438;28;20511;-80
2022/04/16 02:12:38;;;;;;;16.58;7.90;;;11.60;99.90;;;;;;5052185;28;20391;-78
2022/04/16 02:15:05;;;;;;;23.13;8.63;;;11.60;99.90;;;;;;5053097;28;20044;-81
2022/04/16 02:17:32;;;;;;;19.02;8.85;;;11.50;99.90;;;;;;5052272;28;20025;-78
2022/04/16 02:19:58;;;;;;;23.63;9.32;;;11.50;99.90;;;;;;5052059;28;20459;-79
2022/04/16 02:22:25;;;;;;;16.05;9.32;;;11.40;99.90;;;;;;5053446;28;20090;-81
2022/04/16 02:24:51;;;;;;;18.25;9.05;;;11.40;99.90;;;;;;5053366;28;20021;-81
2022/04/16 02:27:17;;;;;;;18.65;8.25;;;11.40;99.90;;;;;;5051979;28;20036;-80
2022/04/16 02:29:43;;;;;;;15.55;8.18;;;11.40;99.90;;;;;;5051569;28;20116;-81
2022/04/16 02:32:09;;;;;;;15.55;8.30;;;11.50;99.90;;;;;;5052918;28;20079;-81
2022/04/16 02:34:35;;;;;;;19.35;8.55;;;11.50;99.90;;;;;;5053137;28;20025;-79
2022/04/16 02:37:01;;;;;;;13.82;8.23;;;11.50;99.90;;;;;;5052650;28;20021;-81
2022/04/16 02:39:26;;;;;;;15.90;7.75;;;11.60;99.90;;;;;;5051711;28;20471;-81
2022/04/16 02:41:52;;;;;;;16.10;8.48;;;11.60;99.90;;;;;;5051704;28;20405;-81
2022/04/16 02:47:05;;;;;;;15.85;8.55;;;11.80;99.90;;;;;;5054319;28;20056;-80
2022/04/16 02:49:31;;;;;;;15.40;9.30;;;11.80;99.90;;;;;;5053054;28;20167;-79
2022/04/16 02:51:56;;;;;;;16.70;8.70;;;11.80;99.90;;;;;;5054268;28;20021;-82
2022/04/16 02:54:25;;;;;;;16.92;8.77;;;11.90;99.90;;;;;;5052875;28;20032;-80
2022/04/16 02:56:51;;;;;;;15.93;9.73;;;11.90;99.90;;;;;;5052764;28;20072;-81
2022/04/16 02:59:18;;;;;;;13.65;8.55;;;11.90;99.90;;;;;;5052534;28;20495;-82
2022/04/16 03:01:44;;;;;;;16.42;8.48;;;11.90;99.90;;;;;;5053298;28;20033;-80
2022/04/16 03:04:10;;;;;;;19.55;9.00;;;11.90;99.90;;;;;;5053697;28;20059;-81
2022/04/16 03:06:35;;;;;;;19.13;9.63;;;12.00;99.90;;;;;;5054116;28;20029;-82
2022/04/16 03:09:01;;;;;;;13.93;8.75;;;12.00;99.90;;;;;;5052529;28;20025;-81
2022/04/16 03:11:27;;;;;;;13.88;8.35;;;12.00;99.90;;;;;;5053366;28;20107;-81
2022/04/16 03:13:52;;;;;;;15.88;8.70;;;12.00;99.90;;;;;;5053315;28;20025;-80
2022/04/16 03:19:02;;;;;;;19.63;10.77;;;12.10;99.90;;;;;;5052740;28;20094;-81
2022/04/16 03:21:28;;;;;;;23.60;12.55;;;12.10;99.90;;;;;;5052573;28;20056;-80
2022/04/16 03:23:54;;;;;;;22.90;13.20;;;12.10;99.90;;;;;;5052748;28;20118;-80
2022/04/16 03:26:19;;;;;;;18.08;10.88;;;12.10;99.90;;;;;;5051743;28;20025;-81
2022/04/16 03:28:45;;;;;;;18.20;9.93;;;12.10;99.90;;;;;;5052271;28;20029;-81
2022/04/16 03:31:11;;;;;;;14.07;8.65;;;12.10;99.90;;;;;;5053303;28;20037;-81
2022/04/16 03:33:36;;;;;;;18.27;11.18;;;12.10;99.90;;;;;;5053409;28;20037;-81
2022/04/16 03:36:03;;;;;;;18.73;11.05;;;12.10;99.90;;;;;;5052099;28;20025;-79
2022/04/16 03:38:29;;;;;;;18.05;10.60;;;12.00;99.90;;;;;;5052254;28;20111;-80
2022/04/16 03:40:54;;;;;;;21.13;9.77;;;12.10;99.90;;;;;;5052389;28;20108;-80
2022/04/16 03:43:21;;;;;;;18.73;11.40;;;12.10;99.90;;;;;;5051945;28;20040;-82
2022/04/16 03:45:47;;;;;;;18.85;9.27;;;12.00;99.90;;;;;;5053523;28;20467;-80
2022/04/16 03:48:13;;;;;;;15.73;9.60;;;12.10;99.90;;;;;;5052062;28;20120;-81
2022/04/16 03:50:40;;;;;;;11.98;8.68;;;12.10;99.90;;;;;;5052095;28;20430;-80
2022/04/16 03:53:05;;;;;;;18.38;10.13;;;12.10;99.90;;;;;;5051878;28;20119;-82
2022/04/16 04:01:04;;;;;;;17.13;10.38;;;12.10;99.90;;;;;;5052386;28;20051;-81
2022/04/16 04:03:30;;;;;;;17.73;10.40;;;12.10;99.90;;;;;;5051819;28;20037;-82
2022/04/16 04:05:58;;;;;;;18.55;10.00;;;12.10;99.90;;;;;;5052081;28;20436;-80
2022/04/16 04:08:25;;;;;;;17.60;9.60;;;12.10;99.90;;;;;;5051823;28;20380;-81
2022/04/16 04:10:51;;;;;;;19.23;10.80;;;12.10;99.90;;;;;;5051437;28;20033;-80
2022/04/16 04:13:18;;;;;;;21.33;11.80;;;12.10;99.90;;;;;;5053164;28;20039;-79
2022/04/16 04:15:44;;;;;;;18.83;10.82;;;12.20;99.90;;;;;;5053026;28;20025;-80
2022/04/16 04:18:10;;;;;;;17.85;10.18;;;12.30;99.90;;;;;;5053335;28;20032;-80
2022/04/16 04:20:36;;;;;;;19.15;10.88;;;12.40;99.90;;;;;;5051798;28;20078;-80
2022/04/16 04:23:03;;;;;;;17.02;11.68;;;12.30;99.90;;;;;;5051541;28;20041;-81
2022/04/16 04:25:29;;;;;;;18.35;12.13;;;12.30;99.90;;;;;;5053284;28;20052;-82
2022/04/16 04:27:55;;;;;;;18.95;10.93;;;12.30;99.90;;;;;;5052523;28;20116;-79
2022/04/16 04:30:21;;;;;;;22.13;10.82;;;12.40;99.90;;;;;;5055539;28;20120;-81
2022/04/16 04:32:47;;;;;;;16.05;10.80;;;12.40;99.90;;;;;;5056756;28;20040;-80
2022/04/16 04:35:13;;;;;;;16.92;9.85;;;12.40;99.90;;;;;;5056580;28;20441;-81
2022/04/16 04:37:39;;;;;;;19.17;11.30;;;12.40;99.90;;;;;;5055431;28;20432;-81
2022/04/16 04:40:05;;;;;;;24.20;11.40;;;12.40;99.90;;;;;;5056245;28;20104;-80
2022/04/16 04:42:33;;;;;;;20.70;12.32;;;12.40;99.90;;;;;;5056515;28;20040;-80
2022/04/16 04:45:05;;;;;;;23.20;13.70;;;12.50;99.90;;;;;;5054447;28;20032;-80
2022/04/16 04:47:31;;;;;;;20.35;11.90;;;12.50;99.90;;;;;;5056236;28;20048;-80
2022/04/16 04:49:57;;;;;;;19.38;12.57;;;12.50;99.90;;;;;;5055950;28;20460;-82
2022/04/16 04:52:26;;;;;;;15.93;11.38;;;12.40;99.90;;;;;;5056331;28;20039;-82
2022/04/16 04:54:56;;;;;;;23.15;12.40;;;12.50;99.90;;;;;;5056009;28;20373;-81
2022/04/16 04:57:21;;;;;;;22.58;12.65;;;12.40;99.90;;;;;;5054910;28;20083;-81
2022/04/16 04:59:47;;;;;;;22.98;13.52;;;12.40;99.90;;;;;;5055920;28;20057;-82
2022/04/16 05:02:13;;;;;;;27.10;15.30;;;12.40;99.90;;;;;;5054897;28;20070;-79
2022/04/16 05:04:39;;;;;;;21.67;12.77;;;12.30;99.90;;;;;;5055349;28;20064;-80
2022/04/16 05:07:06;;;;;;;20.75;13.38;;;12.30;99.90;;;;;;5054534;28;20028;-81
2022/04/16 05:09:33;;;;;;;20.23;13.63;;;12.30;99.90;;;;;;5054778;28;20533;-79
2022/04/16 05:11:59;;;;;;;19.58;12.82;;;12.30;99.90;;;;;;5054627;28;20119;-81
2022/04/16 05:14:25;;;;;;;19.55;14.02;;;12.30;99.90;;;;;;5056035;28;20025;-81
2022/04/16 05:16:51;;;;;;;25.58;16.08;;;12.30;99.90;;;;;;5055549;28;20025;-81
2022/04/16 05:19:17;;;;;;;25.23;14.93;;;12.30;99.90;;;;;;5055861;28;20459;-83
2022/04/16 05:21:43;;;;;;;27.50;14.77;;;12.30;99.90;;;;;;5054079;28;20033;-81
2022/04/16 05:24:09;;;;;;;27.05;16.38;;;12.30;99.90;;;;;;5055076;28;20044;-84
2022/04/16 05:26:36;;;;;;;27.17;16.92;;;12.40;99.90;;;;;;5054458;28;20025;-84
2022/04/16 05:29:02;;;;;;;26.38;15.13;;;12.50;99.90;;;;;;5054349;28;20025;-85
2022/04/16 05:31:30;;;;;;;23.02;14.70;;;12.50;99.90;;;;;;5055125;28;20025;-82
2022/04/16 05:36:40;;;;;;;22.17;13.55;;;12.70;99.90;;;;;;5055457;28;20529;-85
2022/04/16 05:39:06;;;;;;;36.17;17.00;;;12.60;99.90;;;;;;5054294;28;20029;-83
2022/04/16 05:41:35;;;;;;;29.30;17.17;;;12.70;99.90;;;;;;5054100;28;20357;-85
2022/04/16 05:44:02;;;;;;;25.98;14.15;;;12.80;99.90;;;;;;5054091;28;20052;-85
2022/04/16 05:46:28;;;;;;;23.52;13.23;;;12.80;99.90;;;;;;5054938;28;20383;-81
2022/04/16 05:48:55;;;;;;;19.35;12.57;;;12.80;99.90;;;;;;5055304;28;20021;-83
2022/04/16 05:51:21;;;;;;;21.55;12.38;;;12.80;99.90;;;;;;5053712;28;20036;-84
2022/04/16 05:53:49;;;;;;;22.27;14.70;;;12.80;99.90;;;;;;5054830;28;20498;-83
2022/04/16 05:56:15;;;;;;;24.70;14.48;;;12.80;99.90;;;;;;5054781;28;20029;-81
2022/04/16 05:58:42;;;;;;;23.85;14.55;;;12.80;99.90;;;;;;5053366;28;20047;-82
2022/04/16 06:01:08;;;;;;;25.95;14.15;;;12.90;99.90;;;;;;5053598;28;20075;-81
2022/04/16 06:03:36;;;;;;;22.65;14.35;;;12.90;99.90;;;;;;5053410;28;20033;-80
2022/04/16 06:06:06;;;;;;;22.45;14.55;;;12.90;99.90;;;;;;5053601;28;20024;-82
2022/04/16 06:08:32;;;;;;;20.88;14.52;;;13.00;99.90;;;;;;5052455;28;20021;-82
2022/04/16 06:11:01;;;;;;;25.13;14.57;;;13.00;99.90;;;;;;5053826;28;20020;-82
2022/04/16 06:13:27;;;;;;;22.77;14.18;;;12.90;99.90;;;;;;5052118;28;20059;-81
2022/04/16 06:15:52;;;;;;;23.17;12.65;;;12.70;99.90;;;;;;5053376;28;20436;-84
2022/04/16 06:18:18;;;;;;;22.67;12.93;;;12.60;99.90;;;;;;5053249;28;20463;-82
2022/04/16 06:20:44;;;;;;;24.10;12.05;;;12.60;99.90;;;;;;5051986;28;20035;-83
2022/04/16 06:23:10;;;;;;;17.90;12.23;;;12.60;99.90;;;;;;5052911;28;20045;-81
2022/04/16 06:25:36;;;;;;;17.25;11.43;;;12.50;99.90;;;;;;5052254;28;20452;-82
2022/04/16 06:28:02;;;;;;;16.40;12.02;;;12.50;99.90;;;;;;5053983;28;20456;-82
2022/04/16 06:30:28;;;;;;;20.05;11.95;;;12.50;99.90;;;;;;5053066;28;20025;-83
2022/04/16 06:32:54;;;;;;;17.52;11.75;;;12.50;99.90;;;;;;5053553;28;20020;-82
2022/04/16 06:35:21;;;;;;;27.42;14.98;;;12.40;99.90;;;;;;5053848;28;20112;-81
2022/04/16 06:37:47;;;;;;;17.60;12.30;;;12.50;99.90;;;;;;5054062;28;20033;-81
2022/04/16 06:40:13;;;;;;;22.38;15.75;;;12.60;99.90;;;;;;5053877;28;20035;-80
2022/04/16 06:42:40;;;;;;;20.45;12.98;;;12.60;99.90;;;;;;5053026;28;20568;-81
2022/04/16 06:45:07;;;;;;;20.13;12.25;;;12.70;99.90;;;;;;5051776;28;20056;-81
2022/04/16 06:47:34;;;;;;;17.63;12.60;;;12.70;99.90;;;;;;5052676;28;20108;-83
2022/04/16 06:50:02;;;;;;;15.57;11.23;;;12.70;99.90;;;;;;5053618;28;20021;-84
2022/04/16 06:52:28;;;;;;;18.67;12.77;;;12.60;99.90;;;;;;5053882;28;20475;-82
2022/04/16 06:54:57;;;;;;;17.55;11.50;;;12.80;99.90;;;;;;5053517;28;20029;-81
2022/04/16 06:57:23;;;;;;;22.63;12.13;;;12.80;99.90;;;;;;5053809;28;20023;-79
2022/04/16 06:59:49;;;;;;;19.67;11.10;;;12.90;99.90;;;;;;5053720;28;20048;-82
2022/04/16 07:02:14;;;;;;;19.40;12.05;;;12.80;99.90;;;;;;5052174;28;20462;-80
2022/04/16 07:04:41;;;;;;;19.50;11.32;;;12.80;99.90;;;;;;5052281;28;20021;-81
2022/04/16 07:07:08;;;;;;;20.75;10.90;;;12.70;99.90;;;;;;5053176;28;20044;-83
2022/04/16 07:09:40;;;;;;;23.55;11.45;;;12.70;99.90;;;;;;5052031;28;20025;-81
2022/04/16 07:12:07;;;;;;;16.27;11.57;;;12.70;99.90;;;;;;5048929;28;20384;-83
2022/04/16 07:14:34;;;;;;;20.27;12.25;;;12.80;99.90;;;;;;5052022;28;20079;-83
2022/04/16 07:17:03;;;;;;;20.35;13.45;;;12.80;99.90;;;;;;5050802;28;20382;-81
2022/04/16 07:19:32;;;;;;;20.70;12.90;;;12.80;99.90;;;;;;5050985;28;20459;-82
2022/04/16 07:21:58;;;;;;;16.60;10.13;;;12.70;99.90;;;;;;5051853;28;20025;-84
2022/04/16 07:24:27;;;;;;;26.95;16.95;;;12.60;99.90;;;;;;5051640;28;20044;-82
2022/04/16 07:26:54;;;;;;;21.55;12.75;;;12.50;99.90;;;;;;5051922;28;20432;-83
2022/04/16 07:29:21;;;;;;;19.40;12.80;;;12.60;99.90;;;;;;5053725;28;20087;-82
2022/04/16 07:31:47;;;;;;;18.73;10.70;;;12.50;99.90;;;;;;5053245;28;20025;-81
2022/04/16 07:34:13;;;;;;;24.38;15.93;;;12.50;99.90;;;;;;5053074;28;20037;-80
2022/04/16 07:36:39;;;;;;;37.55;22.08;;;12.50;99.90;;;;;;5053122;28;20028;-79
2022/04/16 07:39:04;;;;;;;61.97;30.70;;;12.40;99.90;;;;;;5051597;28;20021;-79
2022/04/16 07:41:30;;;;;;;57.15;32.05;;;12.40;99.90;;;;;;5052019;28;20033;-81
2022/04/16 07:44:02;;;;;;;34.67;21.05;;;12.40;99.90;;;;;;5051976;28;20037;-81
2022/04/16 07:46:29;;;;;;;37.70;21.83;;;12.50;99.90;;;;;;5052384;28;20029;-82
2022/04/16 07:49:00;;;;;;;32.70;17.92;;;12.40;99.90;;;;;;5052197;28;20032;-82
2022/04/16 07:51:26;;;;;;;32.55;20.50;;;12.30;99.90;;;;;;5053392;28;20478;-80
2022/04/16 07:53:53;;;;;;;22.02;14.68;;;12.30;99.90;;;;;;5052128;28;20114;-82
2022/04/16 07:56:19;;;;;;;26.77;18.73;;;12.30;99.90;;;;;;5052489;28;20021;-83
2022/04/16 07:58:45;;;;;;;26.17;17.60;;;12.20;99.90;;;;;;5053058;28;20380;-81
2022/04/16 08:01:11;;;;;;;20.02;13.93;;;12.10;99.90;;;;;;5053455;28;20029;-81
2022/04/16 08:03:38;;;;;;;17.17;11.88;;;12.10;99.90;;;;;;5054191;28;20141;-81
2022/04/16 08:06:03;;;;;;;26.77;15.55;;;12.20;99.90;;;;;;5057110;28;20025;-80
2022/04/16 08:08:32;;;;;;;53.65;33.78;;;12.20;99.90;;;;;;5056047;28;20116;-81
2022/04/16 08:11:19;;;;;;;33.97;23.02;;;12.30;99.90;;;;;;5056910;28;20523;-83
2022/04/16 08:13:44;;;;;;;29.08;19.33;;;12.30;99.90;;;;;;5056335;28;20037;-81
2022/04/16 08:16:10;;;;;;;21.13;13.30;;;12.40;99.90;;;;;;5055699;28;20031;-83
2022/04/16 08:18:47;;;;;;;18.52;12.30;;;12.40;99.90;;;;;;5055913;28;20029;-82
2022/04/16 08:21:13;;;;;;;14.55;10.25;;;12.50;99.90;;;;;;5056257;28;20037;-82
2022/04/16 08:23:44;;;;;;;15.52;10.95;;;12.50;99.90;;;;;;5055722;28;20537;-83
2022/04/16 08:26:11;;;;;;;21.40;13.70;;;12.50;99.90;;;;;;5056916;28;20021;-81
2022/04/16 08:28:39;;;;;;;57.08;32.05;;;12.60;99.90;;;;;;5055743;28;20056;-82
2022/04/16 08:31:05;;;;;;;56.45;32.15;;;12.80;99.90;;;;;;5055574;28;20040;-82
2022/04/16 08:33:30;;;;;;;23.75;15.75;;;12.90;99.90;;;;;;5055345;28;20033;-79
2022/04/16 08:35:56;;;;;;;20.23;13.18;;;13.30;99.90;;;;;;5055521;28;20055;-82
2022/04/16 08:38:22;;;;;;;20.02;13.90;;;13.40;99.90;;;;;;5057152;28;20041;-82
2022/04/16 08:40:50;;;;;;;22.25;15.00;;;13.50;99.90;;;;;;5055368;28;20121;-78
2022/04/16 08:43:16;;;;;;;23.42;16.38;;;13.50;99.90;;;;;;5055376;28;20459;-81
2022/04/16 08:45:42;;;;;;;22.10;15.20;;;13.60;99.90;;;;;;5056421;28;20032;-82
2022/04/16 08:48:09;;;;;;;18.63;13.43;;;13.30;99.90;;;;;;5054645;28;20025;-82
2022/04/16 08:50:36;;;;;;;19.92;12.15;;;13.40;99.90;;;;;;5054635;28;20029;-80
2022/04/16 08:53:01;;;;;;;23.70;14.30;;;13.40;99.90;;;;;;5054759;28;20570;-81
2022/04/16 08:55:28;;;;;;;24.50;13.50;;;13.20;99.90;;;;;;5054663;28;20025;-82
2022/04/16 08:57:55;;;;;;;30.20;15.85;;;13.30;99.90;;;;;;5054863;28;20120;-80
2022/04/16 09:00:21;;;;;;;21.42;13.45;;;13.60;99.90;;;;;;5054780;28;20479;-79
2022/04/16 09:02:56;;;;;;;41.72;14.43;;;14.20;99.90;;;;;;5054956;28;20474;-79
2022/04/16 09:05:23;;;;;;;20.17;12.73;;;15.30;99.90;;;;;;5055713;28;20536;-78
2022/04/16 09:07:50;;;;;;;22.50;13.20;;;16.10;99.90;;;;;;5055658;28;20388;-81
2022/04/16 09:10:17;;;;;;;33.53;17.75;;;16.50;99.90;;;;;;5056340;28;20017;-80
2022/04/16 09:12:45;;;;;;;45.15;20.75;;;16.70;99.90;;;;;;5054864;28;20028;-80
2022/04/16 09:15:13;;;;;;;23.13;12.00;;;16.80;99.90;;;;;;5054870;28;20051;-81
2022/04/16 09:17:39;;;;;;;45.55;21.42;;;16.50;96.40;;;;;;5056468;28;20075;-79
2022/04/16 09:20:15;;;;;;;75.78;26.35;;;16.00;96.90;;;;;;5055984;28;20025;-81
2022/04/16 09:22:48;;;;;;;58.70;18.42;;;17.10;98.70;;;;;;5055839;28;20040;-79
2022/04/16 09:25:16;;;;;;;43.50;19.17;;;17.40;95.10;;;;;;5055323;28;20414;-82
2022/04/16 09:27:50;;;;;;;28.23;12.90;;;16.40;93.50;;;;;;5054674;28;20025;-80
2022/04/16 09:30:26;;;;;;;22.70;12.90;;;16.10;93.70;;;;;;5055477;28;20049;-81
2022/04/16 09:32:55;;;;;;;16.08;9.90;;;15.90;96.00;;;;;;5054814;28;20091;-80
2022/04/16 09:35:35;;;;;;;59.80;23.58;;;16.70;96.30;;;;;;5055889;28;20017;-81
2022/04/16 09:38:06;;;;;;;41.03;17.88;;;16.90;95.60;;;;;;5055349;28;20021;-80
2022/04/16 09:40:36;;;;;;;47.45;18.05;;;16.60;93.00;;;;;;5055407;28;20017;-79
2022/04/16 09:43:04;;;;;;;121.47;38.97;;;17.00;92.00;;;;;;5053869;28;20037;-80
2022/04/16 09:45:30;;;;;;;36.65;16.63;;;16.80;88.50;;;;;;5054395;28;20040;-79
2022/04/16 09:47:57;;;;;;;37.92;17.25;;;17.00;90.10;;;;;;5055217;28;20098;-81
2022/04/16 09:50:29;;;;;;;15.68;7.78;;;17.00;90.10;;;;;;5055358;28;20128;-80
2022/04/16 09:52:57;;;;;;;74.28;27.05;;;16.80;86.40;;;;;;5054093;28;20025;-78
2022/04/16 09:55:27;;;;;;;66.35;25.42;;;16.30;90.20;;;;;;5055697;28;20395;-82
2022/04/16 09:57:57;;;;;;;33.85;16.23;;;16.50;90.70;;;;;;5053843;28;20071;-81
2022/04/16 10:00:23;;;;;;;69.82;32.22;;;16.50;90.50;;;;;;5054842;28;20049;-80
2022/04/16 10:02:49;;;;;;;80.35;33.13;;;16.50;91.20;;;;;;5053950;28;20041;-80
2022/04/16 10:05:15;;;;;;;28.77;14.48;;;16.80;90.00;;;;;;5055029;28;20032;-79
2022/04/16 10:07:43;;;;;;;23.60;12.32;;;17.20;87.80;;;;;;5054785;28;20442;-80
2022/04/16 10:10:17;;;;;;;12.85;8.70;;;17.10;89.70;;;;;;5053880;28;20028;-78
2022/04/16 10:13:00;;;;;;;36.80;16.92;;;17.00;85.30;;;;;;5055285;28;20082;-80
2022/04/16 10:15:59;;;;;;;73.57;29.17;;;16.70;89.20;;;;;;5053785;28;20036;-81
2022/04/16 10:18:25;;;;;;;63.60;32.63;;;17.10;84.20;;;;;;5054732;28;20357;-78
2022/04/16 10:20:56;;;;;;;38.20;19.85;;;17.50;77.70;;;;;;5053471;28;20079;-81
2022/04/16 10:23:32;;;;;;;25.98;12.27;;;17.50;74.60;;;;;;5054734;28;20483;-79
2022/04/16 10:26:06;;;;;;;33.70;17.17;;;18.60;69.80;;;;;;5053108;28;20348;-80
2022/04/16 10:28:38;;;;;;;14.70;9.23;;;17.70;68.80;;;;;;5054885;28;20025;-79
2022/04/16 10:31:08;;;;;;;38.03;21.98;;;17.20;68.50;;;;;;5053565;28;20495;-83
2022/04/16 10:33:33;;;;;;;21.38;10.60;;;17.50;69.20;;;;;;5054623;28;20032;-79
2022/04/16 10:36:09;;;;;;;7.43;5.20;;;18.50;68.30;;;;;;5054263;28;20033;-80
2022/04/16 10:38:43;;;;;;;9.50;6.20;;;17.60;65.60;;;;;;5054451;28;20025;-81
2022/04/16 10:41:19;;;;;;;14.55;9.80;;;17.00;67.80;;;;;;5053212;28;20033;-80
2022/04/16 10:43:59;;;;;;;13.23;8.98;;;18.00;69.90;;;;;;5052994;28;20052;-80
2022/04/16 10:46:40;;;;;;;8.57;6.57;;;18.70;66.20;;;;;;5052960;28;20021;-77
2022/04/16 10:49:14;;;;;;;8.60;6.00;;;19.50;62.00;;;;;;5052239;28;20029;-77
2022/04/16 10:51:39;;;;;;;9.85;6.13;;;18.70;62.30;;;;;;5052980;28;20021;-80
2022/04/16 10:54:10;;;;;;;7.68;5.22;;;18.30;64.30;;;;;;5052896;28;20025;-78
2022/04/16 10:56:42;;;;;;;11.43;6.65;;;18.70;62.50;;;;;;5054127;28;20451;-78
2022/04/16 10:59:11;;;;;;;9.75;6.57;;;19.80;61.90;;;;;;5054055;28;20470;-82
2022/04/16 11:01:38;;;;;;;8.82;5.07;;;20.10;57.70;;;;;;5053390;28;20028;-80
2022/04/16 11:04:15;;;;;;;6.10;5.00;;;19.60;57.20;;;;;;5052935;28;20128;-80
2022/04/16 11:06:46;;;;;;;4.05;3.50;;;19.20;58.00;;;;;;5053408;28;20433;-79
2022/04/16 11:09:13;;;;;;;10.18;5.95;;;19.60;55.80;;;;;;5052836;28;20044;-78
2022/04/16 11:11:41;;;;;;;7.93;4.78;;;20.30;56.00;;;;;;5053930;28;20033;-78
2022/04/16 11:14:08;;;;;;;6.97;4.68;;;20.60;53.10;;;;;;5053216;28;20033;-79
2022/04/16 11:16:48;;;;;;;6.88;5.20;;;20.00;52.60;;;;;;5052671;28;20032;-79
2022/04/16 11:19:15;;;;;;;10.38;5.95;;;20.60;53.50;;;;;;5053054;28;20098;-79
2022/04/16 11:21:42;;;;;;;12.63;5.18;;;20.80;51.50;;;;;;5053749;28;20029;-80
2022/04/16 11:24:09;;;;;;;4.53;2.70;;;20.40;50.70;;;;;;5051343;28;20036;-79
2022/04/16 11:34:52;;;;;;;86.63;30.42;;;18.60;53.70;;;;;;5052463;28;20036;-81
2022/04/16 11:37:18;;;;;;;49.25;18.40;;;18.30;55.20;;;;;;5052287;28;20118;-78
2022/04/16 11:39:48;;;;;;;65.65;23.63;;;19.60;55.70;;;;;;5051443;28;20056;-80
2022/04/16 11:42:14;;;;;;;10.35;4.30;;;19.90;53.80;;;;;;5051145;28;20029;-78
2022/04/16 11:44:48;;;;;;;5.03;2.95;;;19.40;52.60;;;;;;5053160;28;20475;-79
2022/04/16 11:47:17;;;;;;;9.20;4.28;;;18.30;53.00;;;;;;5051812;28;20140;-78
2022/04/16 11:49:51;;;;;;;7.57;5.00;;;18.10;55.30;;;;;;5052528;28;20025;-78
2022/04/16 11:52:27;;;;;;;10.00;6.07;;;17.90;55.70;;;;;;5052607;28;20017;-79
2022/04/16 11:55:13;;;;;;;53.47;20.48;;;17.70;56.20;;;;;;5052740;28;20074;-79
2022/04/16 11:57:45;;;;;;;23.27;11.13;;;19.00;57.80;;;;;;5052297;28;20025;-77
2022/04/16 12:00:12;;;;;;;16.70;7.95;;;19.20;54.30;;;;;;5052294;28;20080;-79
2022/04/16 12:02:39;;;;;;;18.98;10.10;;;18.70;54.60;;;;;;5052363;28;20041;-79
2022/04/16 12:05:13;;;;;;;33.50;14.52;;;18.30;56.10;;;;;;5052284;28;20028;-79
2022/04/16 12:07:45;;;;;;;28.88;13.93;;;18.20;56.60;;;;;;5051164;28;20480;-79
2022/04/16 12:10:13;;;;;;;;;;;18.10;58.40;;;;;;5051180;28;20028;-77
2022/04/16 12:12:49;;;;;;;8.25;4.65;;;18.40;57.90;;;;;;5051318;28;19920;-79
2022/04/16 12:15:24;;;;;;;19.20;9.95;;;18.00;57.90;;;;;;5052482;28;20017;-78
2022/04/16 12:17:52;;;;;;;41.05;20.38;;;17.80;57.20;;;;;;5050886;28;20537;-78
2022/04/16 12:20:20;;;;;;;33.15;16.13;;;17.40;57.40;;;;;;5052562;28;20036;-78
2022/04/16 12:22:58;;;;;;;29.88;14.75;;;17.70;57.40;;;;;;5051104;28;20384;-78
2022/04/16 12:25:24;;;;;;;15.60;7.93;;;18.00;56.70;;;;;;5051236;28;20025;-80
2022/04/16 12:27:52;;;;;;;6.88;3.55;;;18.10;55.20;;;;;;5050853;28;20337;-79
2022/04/16 12:30:25;;;;;;;6.28;3.58;;;18.60;56.40;;;;;;5049931;28;20025;-80
2022/04/16 12:33:04;;;;;;;51.25;22.50;;;19.20;55.80;;;;;;5047966;28;20029;-80
2022/04/16 12:35:35;;;;;;;13.18;7.88;;;20.00;53.80;;;;;;5052213;28;20422;-80
2022/04/16 12:38:01;;;;;;;21.50;12.50;;;21.10;53.50;;;;;;5050790;28;20111;-79
2022/04/16 12:40:28;;;;;;;7.93;5.35;;;20.30;52.40;;;;;;5051161;28;20021;-79
2022/04/16 12:42:56;;;;;;;14.10;6.40;;;20.20;51.10;;;;;;5050796;28;20412;-78
2022/04/16 12:45:23;;;;;;;8.13;5.40;;;20.30;53.20;;;;;;5051004;28;20029;-79
2022/04/16 12:47:52;;;;;;;21.80;10.30;;;20.80;51.20;;;;;;5050839;28;20036;-79
2022/04/16 12:50:19;;;;;;;9.23;5.05;;;20.50;50.40;;;;;;5055126;28;20025;-82
2022/04/16 12:52:46;;;;;;;12.80;7.40;;;21.10;49.40;;;;;;5055873;28;20483;-80
2022/04/16 12:55:12;;;;;;;10.05;5.25;;;20.00;49.90;;;;;;5054515;28;20024;-80
2022/04/16 12:57:38;;;;;;;33.58;15.68;;;19.50;51.20;;;;;;5054369;28;20123;-81